createdAt,value
2022-12-18T00:00:11.346Z,16.20
2022-12-18T00:02:39.584Z,16.10
2022-12-18T00:05:09.294Z,16.40
2022-12-18T00:07:37.931Z,16.10
2022-12-18T00:10:07.931Z,16.40
2022-12-18T00:12:36.072Z,16.10
2022-12-18T00:15:05.946Z,16.30
2022-12-18T00:17:35.315Z,16.20
2022-12-18T00:20:03.790Z,16.40
2022-12-18T00:22:32.075Z,16.30
2022-12-18T00:25:00.151Z,16.00
2022-12-18T00:27:28.241Z,16.40
2022-12-18T00:29:56.279Z,16.40
2022-12-18T00:32:24.403Z,16.30
2022-12-18T00:34:53.788Z,16.20
2022-12-18T00:37:21.732Z,16.10
2022-12-18T00:39:51.277Z,16.20
2022-12-18T00:42:36.816Z,16.20
2022-12-18T00:45:10.653Z,16.20
2022-12-18T00:47:40.857Z,16.20
2022-12-18T00:50:11.774Z,15.90
2022-12-18T00:52:39.925Z,16.50
2022-12-18T00:55:08.976Z,16.30
2022-12-18T00:57:37.105Z,16.10
2022-12-18T01:00:07.749Z,16.20
2022-12-18T01:02:36.039Z,16.20
2022-12-18T01:05:04.847Z,15.80
2022-12-18T01:07:34.226Z,16.40
2022-12-18T01:10:02.306Z,16.00
2022-12-18T01:12:30.309Z,16.40
2022-12-18T01:14:58.413Z,16.20
2022-12-18T01:17:26.728Z,16.10
2022-12-18T01:19:54.810Z,15.90
2022-12-18T01:22:22.948Z,16.10
2022-12-18T01:24:52.310Z,16.20
2022-12-18T01:27:20.384Z,16.20
2022-12-18T01:29:48.336Z,16.20
2022-12-18T01:32:16.422Z,16.00
2022-12-18T01:34:44.537Z,16.40
2022-12-18T01:37:12.679Z,16.30
2022-12-18T01:39:40.780Z,15.30
2022-12-18T01:42:15.681Z,15.80
2022-12-18T01:45:01.122Z,15.90
2022-12-18T01:47:35.558Z,15.70
2022-12-18T01:50:09.648Z,15.70
2022-12-18T01:52:42.305Z,15.80
2022-12-18T01:55:13.279Z,15.80
2022-12-18T01:57:43.355Z,15.80
2022-12-18T02:00:15.731Z,15.90
2022-12-18T02:02:45.288Z,15.90
2022-12-18T02:05:17.249Z,15.80
2022-12-18T02:07:57.095Z,15.80
2022-12-18T02:10:31.970Z,15.80
2022-12-18T02:13:10.932Z,15.70
2022-12-18T02:15:43.408Z,15.90
2022-12-18T02:18:16.943Z,16.20
2022-12-18T02:20:50.205Z,15.70
2022-12-18T02:23:39.855Z,15.70
2022-12-18T02:26:18.139Z,15.70
2022-12-18T02:28:49.436Z,15.80
2022-12-18T02:31:23.056Z,15.80
2022-12-18T02:33:53.429Z,15.60
2022-12-18T02:36:24.045Z,16.00
2022-12-18T02:38:54.303Z,15.80
2022-12-18T02:41:24.787Z,15.90
2022-12-18T02:44:02.471Z,16.20
2022-12-18T02:46:37.794Z,15.80
2022-12-18T02:49:22.489Z,16.00
2022-12-18T02:51:56.467Z,15.80
2022-12-18T02:54:48.275Z,15.80
2022-12-18T02:57:26.070Z,15.70
2022-12-18T03:00:02.496Z,15.90
2022-12-18T03:02:39.476Z,15.70
2022-12-18T03:05:15.251Z,15.70
2022-12-18T03:07:49.322Z,16.00
2022-12-18T03:10:23.930Z,15.70
2022-12-18T03:12:57.226Z,15.70
2022-12-18T03:15:30.571Z,15.90
2022-12-18T03:18:03.856Z,16.20
2022-12-18T03:20:33.773Z,15.80
2022-12-18T03:23:09.857Z,15.70
2022-12-18T03:25:43.967Z,15.70
2022-12-18T03:28:17.942Z,15.70
2022-12-18T03:30:48.114Z,15.70
2022-12-18T03:33:21.395Z,15.80
2022-12-18T03:35:49.797Z,15.70
2022-12-18T03:38:18.074Z,15.70
2022-12-18T03:41:01.636Z,15.70
2022-12-18T03:43:43.645Z,15.70
2022-12-18T03:46:21.497Z,15.80
2022-12-18T03:48:54.695Z,16.00
2022-12-18T03:51:28.941Z,15.80
2022-12-18T03:54:01.407Z,15.70
2022-12-18T03:56:33.685Z,15.80
2022-12-18T03:59:05.131Z,15.90
2022-12-18T04:01:35.803Z,15.80
2022-12-18T04:04:06.044Z,15.80
2022-12-18T04:06:38.238Z,15.70
2022-12-18T04:09:06.970Z,15.90
2022-12-18T04:11:35.070Z,16.00
2022-12-18T04:14:07.369Z,16.00
2022-12-18T04:16:35.618Z,16.00
2022-12-18T04:19:03.688Z,15.90
2022-12-18T04:21:31.761Z,15.80
2022-12-18T04:23:59.769Z,15.80
2022-12-18T04:26:27.710Z,15.70
2022-12-18T04:28:55.693Z,15.70
2022-12-18T04:31:25.101Z,15.70
2022-12-18T04:33:53.583Z,15.90
2022-12-18T04:36:22.094Z,15.70
2022-12-18T04:38:50.148Z,15.60
2022-12-18T04:41:18.178Z,15.80
2022-12-18T04:43:46.225Z,15.80
2022-12-18T04:46:14.282Z,15.70
2022-12-18T04:48:43.627Z,15.80
2022-12-18T04:51:11.555Z,15.70
2022-12-18T04:53:39.868Z,15.70
2022-12-18T04:56:11.222Z,15.70
2022-12-18T04:58:41.130Z,15.70
2022-12-18T05:01:09.320Z,15.70
2022-12-18T05:03:38.913Z,15.80
2022-12-18T05:06:09.833Z,15.70
2022-12-18T05:08:38.277Z,15.80
2022-12-18T05:11:09.207Z,15.70
2022-12-18T05:13:39.686Z,15.70
2022-12-18T05:16:09.038Z,15.70
2022-12-18T05:18:37.729Z,15.70
2022-12-18T05:21:07.945Z,15.70
2022-12-18T05:23:37.412Z,15.70
2022-12-18T05:26:08.582Z,15.80
2022-12-18T05:28:37.809Z,15.80
2022-12-18T05:31:06.826Z,15.90
2022-12-18T05:33:36.784Z,15.70
2022-12-18T05:36:09.654Z,15.60
2022-12-18T05:38:40.098Z,15.70
2022-12-18T05:41:09.229Z,15.60
2022-12-18T05:43:40.333Z,15.70
2022-12-18T05:46:10.470Z,16.00
2022-12-18T05:48:38.482Z,15.80
2022-12-18T05:51:11.231Z,15.60
2022-12-18T05:53:41.082Z,15.60
2022-12-18T05:56:12.276Z,15.80
2022-12-18T05:58:40.802Z,15.70
2022-12-18T06:01:11.337Z,15.90
2022-12-18T06:03:40.094Z,15.60
2022-12-18T06:06:17.553Z,15.70
2022-12-18T06:08:46.857Z,15.70
2022-12-18T06:11:19.027Z,15.70
2022-12-18T06:13:47.321Z,15.70
2022-12-18T06:16:15.431Z,15.70
2022-12-18T06:18:43.638Z,15.70
2022-12-18T06:21:12.079Z,15.80
2022-12-18T06:23:41.889Z,15.70
2022-12-18T06:26:12.403Z,15.70
2022-12-18T06:28:40.688Z,15.60
2022-12-18T06:31:09.401Z,15.80
2022-12-18T06:33:38.437Z,15.70
2022-12-18T06:36:10.526Z,15.60
2022-12-18T06:38:44.084Z,15.70
2022-12-18T06:41:14.655Z,15.70
2022-12-18T06:43:42.983Z,15.80
2022-12-18T06:46:11.802Z,15.80
2022-12-18T06:48:40.008Z,15.80
2022-12-18T06:51:08.313Z,15.70
2022-12-18T06:53:36.632Z,15.70
2022-12-18T06:56:10.529Z,15.70
2022-12-18T06:58:39.374Z,15.70
2022-12-18T07:01:10.211Z,15.70
2022-12-18T07:03:39.419Z,15.70
2022-12-18T07:06:08.429Z,15.70
2022-12-18T07:08:36.758Z,15.60
2022-12-18T07:11:07.454Z,15.80
2022-12-18T07:13:35.408Z,15.70
2022-12-18T07:16:16.070Z,15.80
2022-12-18T07:18:46.779Z,15.90
2022-12-18T07:21:17.790Z,15.70
2022-12-18T07:23:47.244Z,15.70
2022-12-18T07:26:19.363Z,15.80
2022-12-18T07:28:47.485Z,15.70
2022-12-18T07:31:20.479Z,15.80
2022-12-18T07:33:50.527Z,15.90
2022-12-18T07:36:18.694Z,15.80
2022-12-18T07:38:49.767Z,15.90
2022-12-18T07:41:19.527Z,15.70
2022-12-18T07:43:48.294Z,15.80
2022-12-18T07:46:17.623Z,15.60
2022-12-18T07:48:49.470Z,15.70
2022-12-18T07:51:19.151Z,15.70
2022-12-18T07:53:49.309Z,15.70
2022-12-18T07:56:27.084Z,15.80
2022-12-18T07:58:56.858Z,16.20
2022-12-18T08:01:25.452Z,16.20
2022-12-18T08:03:53.588Z,15.90
2022-12-18T08:06:24.283Z,15.90
2022-12-18T08:08:54.356Z,15.90
2022-12-18T08:11:25.595Z,16.30
2022-12-18T08:13:54.503Z,15.80
2022-12-18T08:16:23.994Z,16.00
2022-12-18T08:18:54.449Z,15.60
2022-12-18T08:21:26.331Z,15.70
2022-12-18T08:23:56.547Z,15.70
2022-12-18T08:26:27.872Z,16.30
2022-12-18T08:28:56.341Z,15.70
2022-12-18T08:31:25.076Z,16.30
2022-12-18T08:33:55.014Z,15.70
2022-12-18T08:36:24.477Z,15.80
2022-12-18T08:38:53.731Z,15.90
2022-12-18T08:41:23.311Z,16.40
2022-12-18T08:44:10.450Z,16.30
2022-12-18T08:46:41.216Z,15.90
2022-12-18T08:49:10.642Z,16.40
2022-12-18T08:51:38.873Z,16.50
2022-12-18T08:54:07.534Z,16.50
2022-12-18T08:56:35.886Z,16.40
2022-12-18T08:59:06.007Z,16.40
2022-12-18T09:01:34.809Z,16.60
2022-12-18T09:04:03.814Z,17.00
2022-12-18T09:06:32.770Z,16.50
2022-12-18T09:09:00.769Z,16.80
2022-12-18T09:11:30.302Z,17.00
2022-12-18T09:13:59.522Z,17.00
2022-12-18T09:16:32.349Z,17.00
2022-12-18T09:19:01.546Z,17.10
2022-12-18T09:21:33.090Z,17.00
2022-12-18T09:24:04.321Z,17.00
2022-12-18T09:26:33.423Z,17.00
2022-12-18T09:29:01.526Z,15.70
2022-12-18T09:31:30.864Z,14.10
2022-12-18T09:33:59.279Z,12.90
2022-12-18T09:36:27.626Z,12.90
2022-12-18T09:38:55.645Z,12.40
2022-12-18T09:41:41.723Z,12.40
2022-12-18T09:44:21.363Z,12.30
2022-12-18T09:47:09.306Z,12.90
2022-12-18T09:49:42.810Z,14.50
2022-12-18T09:52:26.102Z,15.60
2022-12-18T09:54:59.001Z,16.10
2022-12-18T09:57:27.507Z,16.00
2022-12-18T09:59:59.142Z,16.50
2022-12-18T10:02:32.710Z,16.40
2022-12-18T10:05:12.503Z,16.30
2022-12-18T10:07:57.839Z,16.30
2022-12-18T10:10:38.490Z,16.60
2022-12-18T10:13:26.716Z,16.50
2022-12-18T10:16:10.597Z,16.50
2022-12-18T10:19:02.911Z,16.50
2022-12-18T10:21:41.151Z,16.60
2022-12-18T10:24:20.579Z,16.40
2022-12-18T10:26:49.668Z,17.00
2022-12-18T10:29:18.910Z,16.90
2022-12-18T10:31:47.546Z,16.60
2022-12-18T10:34:16.914Z,17.10
2022-12-18T10:36:44.879Z,17.30
2022-12-18T10:39:23.103Z,17.30
2022-12-18T10:41:52.838Z,17.10
2022-12-18T10:44:23.629Z,17.20
2022-12-18T10:46:56.871Z,17.40
2022-12-18T10:49:29.959Z,17.20
2022-12-18T10:52:09.737Z,17.40
2022-12-18T10:54:39.235Z,17.30
2022-12-18T10:57:19.615Z,17.30
2022-12-18T10:59:56.585Z,17.00
2022-12-18T11:02:33.997Z,17.40
2022-12-18T11:05:25.017Z,17.20
2022-12-18T11:07:55.045Z,17.20
2022-12-18T11:10:25.476Z,17.50
2022-12-18T11:12:54.309Z,17.40
2022-12-18T11:15:28.570Z,17.40
2022-12-18T11:17:56.611Z,16.90
2022-12-18T11:20:34.819Z,16.30
2022-12-18T11:23:06.456Z,16.40
2022-12-18T11:25:36.155Z,16.80
2022-12-18T11:28:07.562Z,16.60
2022-12-18T11:30:37.630Z,16.50
2022-12-18T11:33:11.808Z,16.30
2022-12-18T11:35:47.819Z,16.10
2022-12-18T11:38:24.147Z,16.20
2022-12-18T11:40:58.518Z,16.40
2022-12-18T11:43:31.591Z,16.30
2022-12-18T11:46:06.418Z,16.30
2022-12-18T11:48:41.598Z,16.40
2022-12-18T11:51:18.546Z,16.70
2022-12-18T11:53:46.506Z,16.40
2022-12-18T11:56:45.429Z,16.20
2022-12-18T11:59:23.336Z,16.10
2022-12-18T12:01:56.868Z,16.40
2022-12-18T12:04:55.738Z,16.40
2022-12-18T12:07:39.978Z,15.70
2022-12-18T12:10:27.867Z,16.20
2022-12-18T12:13:15.541Z,15.90
2022-12-18T12:15:49.902Z,16.10
2022-12-18T12:18:30.597Z,15.90
2022-12-18T12:21:07.490Z,15.70
2022-12-18T12:23:47.169Z,15.60
2022-12-18T12:26:21.111Z,15.60
2022-12-18T12:29:20.987Z,15.70
2022-12-18T12:32:08.062Z,15.70
2022-12-18T12:34:49.986Z,15.60
2022-12-18T12:37:32.842Z,15.60
2022-12-18T12:40:15.248Z,15.70
2022-12-18T12:43:12.012Z,15.70
2022-12-18T12:45:47.919Z,15.50
2022-12-18T12:48:26.991Z,15.30
2022-12-18T12:50:57.158Z,15.30
2022-12-18T12:53:32.385Z,15.70
2022-12-18T12:56:02.446Z,15.30
2022-12-18T12:58:38.943Z,15.60
2022-12-18T13:01:24.131Z,15.30
2022-12-18T13:04:05.511Z,15.60
2022-12-18T13:06:44.904Z,15.30
2022-12-18T13:09:14.636Z,15.70
2022-12-18T13:12:03.710Z,15.70
2022-12-18T13:14:35.044Z,15.70
2022-12-18T13:17:30.765Z,15.70
2022-12-18T13:20:12.172Z,15.60
2022-12-18T13:22:44.370Z,15.60
2022-12-18T13:25:33.796Z,15.90
2022-12-18T13:28:10.933Z,15.60
2022-12-18T13:30:57.691Z,15.60
2022-12-18T13:34:24.329Z,15.60
2022-12-18T13:36:38.603Z,15.70
2022-12-18T13:39:35.918Z,15.60
2022-12-18T13:42:59.201Z,15.30
2022-12-18T13:45:51.561Z,15.70
2022-12-18T13:48:26.290Z,15.60
2022-12-18T13:51:04.399Z,15.50
2022-12-18T13:53:38.797Z,15.40
2022-12-18T13:56:08.114Z,15.60
2022-12-18T13:58:36.937Z,15.70
2022-12-18T14:01:06.709Z,15.30
2022-12-18T14:03:34.719Z,15.60
2022-12-18T14:06:08.270Z,15.70
2022-12-18T14:08:41.803Z,15.70
2022-12-18T14:11:23.160Z,15.60
2022-12-18T14:13:52.097Z,15.60
2022-12-18T14:16:21.850Z,15.60
2022-12-18T14:18:55.436Z,15.60
2022-12-18T14:21:30.238Z,15.60
2022-12-18T14:24:17.498Z,15.80
2022-12-18T14:26:50.392Z,15.80
2022-12-18T14:29:28.248Z,15.70
2022-12-18T14:32:18.761Z,15.70
2022-12-18T14:34:49.667Z,15.70
2022-12-18T14:37:22.143Z,15.70
2022-12-18T14:39:58.843Z,15.70
2022-12-18T14:42:28.940Z,15.80
2022-12-18T14:45:43.841Z,15.80
2022-12-18T14:48:22.979Z,15.80
2022-12-18T14:51:01.772Z,16.00
2022-12-18T14:53:37.688Z,15.80
2022-12-18T14:56:18.320Z,16.10
2022-12-18T14:58:51.944Z,15.80
2022-12-18T15:01:32.099Z,15.70
2022-12-18T15:04:03.923Z,15.60
2022-12-18T15:06:36.089Z,15.80
2022-12-18T15:09:07.890Z,15.70
2022-12-18T15:11:48.906Z,15.80
2022-12-18T15:14:35.668Z,15.70
2022-12-18T15:17:07.528Z,16.30
2022-12-18T15:19:41.573Z,15.90
2022-12-18T15:22:24.307Z,15.70
2022-12-18T15:24:53.343Z,15.70
2022-12-18T15:27:29.227Z,15.70
2022-12-18T15:30:19.046Z,15.80
2022-12-18T15:32:47.833Z,16.20
2022-12-18T15:35:20.556Z,16.20
2022-12-18T15:37:48.877Z,16.30
2022-12-18T15:40:19.195Z,16.00
2022-12-18T15:43:07.075Z,16.20
2022-12-18T15:45:35.639Z,16.10
2022-12-18T15:48:22.177Z,15.70
2022-12-18T15:50:54.698Z,15.80
2022-12-18T15:53:22.911Z,15.70
2022-12-18T15:56:08.549Z,15.90
2022-12-18T15:58:36.547Z,15.70
2022-12-18T16:01:04.772Z,16.10
2022-12-18T16:03:32.859Z,15.80
2022-12-18T16:06:04.105Z,16.10
2022-12-18T16:08:32.787Z,15.80
2022-12-18T16:11:01.595Z,15.90
2022-12-18T16:13:29.702Z,15.90
2022-12-18T16:15:57.804Z,16.10
2022-12-18T16:18:25.736Z,15.70
2022-12-18T16:20:53.770Z,15.70
2022-12-18T16:23:23.039Z,15.90
2022-12-18T16:25:51.003Z,15.80
2022-12-18T16:28:18.963Z,15.60
2022-12-18T16:30:47.058Z,15.70
2022-12-18T16:33:15.157Z,16.00
2022-12-18T16:35:43.124Z,16.00
2022-12-18T16:38:11.074Z,15.70
2022-12-18T16:41:02.747Z,16.00
2022-12-18T16:43:30.745Z,15.90
2022-12-18T16:46:01.161Z,16.00
2022-12-18T16:48:29.182Z,16.30
2022-12-18T16:51:03.430Z,15.80
2022-12-18T16:53:31.710Z,16.10
2022-12-18T16:56:02.498Z,16.00
2022-12-18T16:58:30.499Z,15.60
2022-12-18T17:00:58.861Z,15.70
2022-12-18T17:03:26.996Z,16.20
2022-12-18T17:05:55.021Z,15.70
2022-12-18T17:08:23.037Z,15.70
2022-12-18T17:10:51.045Z,15.70
2022-12-18T17:13:25.632Z,15.80
2022-12-18T17:15:54.040Z,15.90
2022-12-18T17:18:22.575Z,15.70
2022-12-18T17:20:50.539Z,15.70
2022-12-18T17:23:18.531Z,15.70
2022-12-18T17:25:46.542Z,15.70
2022-12-18T17:28:14.571Z,15.60
2022-12-18T17:30:46.883Z,15.60
2022-12-18T17:33:14.915Z,15.80
2022-12-18T17:35:43.805Z,15.70
2022-12-18T17:38:11.947Z,15.70
2022-12-18T17:40:46.049Z,15.70
2022-12-18T17:43:14.479Z,15.70
2022-12-18T17:45:42.510Z,15.80
2022-12-18T17:48:12.069Z,15.80
2022-12-18T17:50:41.190Z,15.70
2022-12-18T17:53:09.187Z,15.70
2022-12-18T17:55:37.110Z,15.50
2022-12-18T17:58:05.406Z,15.70
2022-12-18T18:00:33.394Z,15.60
2022-12-18T18:03:01.437Z,15.70
2022-12-18T18:05:30.881Z,15.60
2022-12-18T18:07:58.843Z,15.60
2022-12-18T18:10:26.870Z,15.50
2022-12-18T18:13:12.218Z,15.60
2022-12-18T18:15:41.084Z,15.60
2022-12-18T18:18:09.111Z,15.60
2022-12-18T18:20:42.064Z,15.50
2022-12-18T18:23:10.202Z,15.60
2022-12-18T18:25:38.435Z,15.60
2022-12-18T18:28:06.669Z,15.50
2022-12-18T18:30:34.934Z,15.20
2022-12-18T18:33:04.635Z,15.50
2022-12-18T18:38:24.985Z,15.40
2022-12-18T18:41:00.353Z,15.60
2022-12-18T18:43:28.556Z,15.30
2022-12-18T18:45:57.502Z,15.70
2022-12-18T18:48:25.955Z,15.50
2022-12-18T18:50:58.212Z,15.50
2022-12-18T18:53:28.331Z,15.70
2022-12-18T18:56:26.435Z,15.50
2022-12-18T18:58:47.215Z,15.30
2022-12-18T19:01:18.452Z,15.50
2022-12-18T19:03:47.625Z,15.20
2022-12-18T19:06:19.019Z,15.60
2022-12-18T19:08:49.614Z,15.50
2022-12-18T19:11:36.622Z,15.50
2022-12-18T19:14:06.757Z,15.50
2022-12-18T19:16:36.157Z,15.50
2022-12-18T19:19:05.492Z,15.20
2022-12-18T19:21:34.636Z,15.70
2022-12-18T19:24:04.429Z,15.50
2022-12-18T19:26:32.439Z,15.60
2022-12-18T19:29:03.174Z,15.60
2022-12-18T19:31:35.547Z,15.60
2022-12-18T19:34:06.552Z,15.60
2022-12-18T19:36:37.897Z,15.50
2022-12-18T19:39:12.727Z,15.50
2022-12-18T19:41:41.216Z,15.60
2022-12-18T19:44:11.840Z,15.60
2022-12-18T19:46:41.933Z,15.60
2022-12-18T19:49:10.695Z,15.60
2022-12-18T19:51:39.463Z,15.40
2022-12-18T19:54:13.262Z,15.50
2022-12-18T19:56:45.026Z,15.60
2022-12-18T19:59:13.794Z,15.70
2022-12-18T20:01:42.287Z,15.70
2022-12-18T20:04:10.481Z,15.60
2022-12-18T20:06:48.776Z,15.70
2022-12-18T20:09:19.202Z,15.60
2022-12-18T20:11:47.568Z,15.60
2022-12-18T20:14:23.404Z,15.50
2022-12-18T20:16:53.520Z,15.50
2022-12-18T20:19:22.854Z,15.30
2022-12-18T20:21:51.281Z,15.60
2022-12-18T20:24:20.546Z,15.50
2022-12-18T20:26:48.626Z,15.50
2022-12-18T20:29:16.579Z,15.60
2022-12-18T20:31:44.638Z,15.50
2022-12-18T20:34:12.611Z,15.50
2022-12-18T20:36:41.071Z,15.60
2022-12-18T20:39:11.012Z,15.60
2022-12-18T20:41:41.608Z,15.50
2022-12-18T20:44:23.658Z,15.70
2022-12-18T20:46:54.131Z,15.50
2022-12-18T20:49:22.574Z,15.40
2022-12-18T20:51:52.770Z,15.30
2022-12-18T20:54:21.097Z,15.60
2022-12-18T20:56:51.028Z,15.60
2022-12-18T20:59:19.624Z,15.60
2022-12-18T21:01:49.433Z,15.40
2022-12-18T21:04:18.907Z,15.70
2022-12-18T21:06:52.946Z,15.40
2022-12-18T21:09:23.823Z,15.60
2022-12-18T21:12:14.145Z,15.70
2022-12-18T21:14:43.080Z,15.50
2022-12-18T21:17:11.524Z,15.30
2022-12-18T21:19:39.591Z,15.50
2022-12-18T21:22:07.811Z,15.10
2022-12-18T21:24:36.032Z,15.70
2022-12-18T21:27:05.420Z,15.50
2022-12-18T21:29:34.824Z,15.40
2022-12-18T21:32:04.658Z,15.20
2022-12-18T21:34:34.124Z,15.60
2022-12-18T21:37:03.274Z,15.60
2022-12-18T21:39:32.039Z,15.50
2022-12-18T21:42:18.148Z,15.50
2022-12-18T21:44:49.866Z,15.10
2022-12-18T21:47:22.413Z,15.70
2022-12-18T21:49:52.871Z,15.40
2022-12-18T21:52:30.741Z,15.50
2022-12-18T21:55:06.137Z,15.10
2022-12-18T21:57:37.240Z,15.60
2022-12-18T22:00:11.223Z,15.10
2022-12-18T22:02:46.403Z,15.10
2022-12-18T22:05:14.647Z,15.50
2022-12-18T22:07:42.654Z,15.20
2022-12-18T22:10:11.054Z,15.50
2022-12-18T22:12:43.248Z,15.50
2022-12-18T22:15:18.634Z,15.10
2022-12-18T22:17:51.013Z,15.50
2022-12-18T22:20:20.035Z,15.20
2022-12-18T22:22:48.338Z,15.40
2022-12-18T22:25:16.470Z,15.10
2022-12-18T22:28:04.478Z,15.20
2022-12-18T22:30:32.865Z,15.20
2022-12-18T22:33:00.930Z,15.40
2022-12-18T22:35:28.912Z,15.50
2022-12-18T22:37:57.847Z,15.10
2022-12-18T22:40:27.687Z,15.20
2022-12-18T22:42:56.293Z,15.20
2022-12-18T22:45:25.245Z,15.20
2022-12-18T22:47:54.885Z,15.50
2022-12-18T22:50:22.813Z,15.40
2022-12-18T22:52:50.808Z,15.10
2022-12-18T22:55:18.747Z,15.20
2022-12-18T22:57:49.040Z,15.00
2022-12-18T23:00:20.133Z,15.10
2022-12-18T23:02:59.895Z,15.60
2022-12-18T23:05:30.180Z,15.50
2022-12-18T23:07:59.292Z,15.60
2022-12-18T23:10:27.498Z,15.40
2022-12-18T23:12:55.682Z,15.20
2022-12-18T23:15:27.900Z,15.20
2022-12-18T23:17:58.831Z,15.10
2022-12-18T23:20:28.343Z,15.00
2022-12-18T23:22:56.303Z,15.00
2022-12-18T23:25:24.576Z,15.20
2022-12-18T23:27:52.662Z,15.00
2022-12-18T23:30:20.709Z,15.20
2022-12-18T23:32:48.637Z,15.10
2022-12-18T23:35:18.736Z,15.60
2022-12-18T23:38:04.430Z,15.10
2022-12-18T23:40:32.716Z,15.10
2022-12-18T23:43:01.776Z,15.00
2022-12-18T23:45:29.815Z,15.50
2022-12-18T23:47:57.780Z,15.20
2022-12-18T23:50:29.569Z,15.30
2022-12-18T23:53:04.678Z,15.10
2022-12-18T23:55:39.259Z,15.10
2022-12-18T23:58:07.934Z,15.40
